sensor_id;sensor_type;location;lat;lon;timestamp;P1;durP1;ratioP1;P2;durP2;ratioP2
18190;SDS011;47004;51.366;12.348;2022-07-11T00:01:28;2.20;;;1.00;;
18190;SDS011;47004;51.366;12.348;2022-07-11T00:03:32;2.87;;;1.20;;
18190;SDS011;47004;51.366;12.348;2022-07-11T00:05:34;2.00;;;1.00;;
18190;SDS011;47004;51.366;12.348;2022-07-11T00:07:36;3.17;;;1.20;;
18190;SDS011;47004;51.366;12.348;2022-07-11T00:09:38;1.63;;;0.87;;
18190;SDS011;47004;51.366;12.348;2022-07-11T00:11:40;1.60;;;0.87;;
18190;SDS011;47004;51.366;12.348;2022-07-11T00:13:42;1.00;;;0.80;;
18190;SDS011;47004;51.366;12.348;2022-07-11T00:15:44;1.43;;;0.90;;
18190;SDS011;47004;51.366;12.348;2022-07-11T00:17:46;3.40;;;0.97;;
18190;SDS011;47004;51.366;12.348;2022-07-11T00:19:49;1.50;;;0.90;;
18190;SDS011;47004;51.366;12.348;2022-07-11T00:21:51;1.97;;;1.00;;
18190;SDS011;47004;51.366;12.348;2022-07-11T00:23:54;1.30;;;0.83;;
18190;SDS011;47004;51.366;12.348;2022-07-11T00:25:58;2.20;;;0.83;;
18190;SDS011;47004;51.366;12.348;2022-07-11T00:28:00;1.60;;;0.87;;
18190;SDS011;47004;51.366;12.348;2022-07-11T00:30:02;1.90;;;0.90;;
18190;SDS011;47004;51.366;12.348;2022-07-11T00:32:04;2.60;;;1.00;;
18190;SDS011;47004;51.366;12.348;2022-07-11T00:34:07;2.50;;;1.03;;
18190;SDS011;47004;51.366;12.348;2022-07-11T00:36:10;4.87;;;1.30;;
18190;SDS011;47004;51.366;12.348;2022-07-11T00:38:12;2.43;;;0.83;;
18190;SDS011;47004;51.366;12.348;2022-07-11T00:40:14;2.50;;;1.10;;
18190;SDS011;47004;51.366;12.348;2022-07-11T00:42:16;5.13;;;1.37;;
18190;SDS011;47004;51.366;12.348;2022-07-11T00:44:18;3.40;;;1.13;;
18190;SDS011;47004;51.366;12.348;2022-07-11T00:46:20;1.53;;;1.00;;
18190;SDS011;47004;51.366;12.348;2022-07-11T00:48:24;2.33;;;1.00;;
18190;SDS011;47004;51.366;12.348;2022-07-11T00:50:26;3.70;;;0.80;;
18190;SDS011;47004;51.366;12.348;2022-07-11T00:52:30;3.50;;;1.10;;
18190;SDS011;47004;51.366;12.348;2022-07-11T00:54:33;2.93;;;1.27;;
18190;SDS011;47004;51.366;12.348;2022-07-11T00:56:35;2.90;;;1.13;;
18190;SDS011;47004;51.366;12.348;2022-07-11T00:58:37;2.83;;;1.17;;
18190;SDS011;47004;51.366;12.348;2022-07-11T01:00:39;3.03;;;1.13;;
18190;SDS011;47004;51.366;12.348;2022-07-11T01:02:41;4.87;;;1.27;;
18190;SDS011;47004;51.366;12.348;2022-07-11T01:04:43;1.93;;;1.10;;
18190;SDS011;47004;51.366;12.348;2022-07-11T01:06:45;1.67;;;0.90;;
18190;SDS011;47004;51.366;12.348;2022-07-11T01:08:48;1.87;;;1.23;;
18190;SDS011;47004;51.366;12.348;2022-07-11T01:10:50;1.80;;;0.90;;
18190;SDS011;47004;51.366;12.348;2022-07-11T01:12:52;3.60;;;1.00;;
18190;SDS011;47004;51.366;12.348;2022-07-11T01:14:57;1.23;;;1.00;;
18190;SDS011;47004;51.366;12.348;2022-07-11T01:16:59;2.00;;;1.07;;
18190;SDS011;47004;51.366;12.348;2022-07-11T01:19:01;3.73;;;1.03;;
18190;SDS011;47004;51.366;12.348;2022-07-11T01:21:03;1.47;;;1.00;;
18190;SDS011;47004;51.366;12.348;2022-07-11T01:23:12;3.50;;;1.30;;
18190;SDS011;47004;51.366;12.348;2022-07-11T01:25:14;2.80;;;1.27;;
18190;SDS011;47004;51.366;12.348;2022-07-11T01:27:30;1.27;;;0.90;;
18190;SDS011;47004;51.366;12.348;2022-07-11T01:29:32;1.77;;;1.20;;
18190;SDS011;47004;51.366;12.348;2022-07-11T01:31:34;1.80;;;1.10;;
18190;SDS011;47004;51.366;12.348;2022-07-11T01:33:39;1.10;;;1.00;;
18190;SDS011;47004;51.366;12.348;2022-07-11T01:35:41;3.60;;;1.20;;
18190;SDS011;47004;51.366;12.348;2022-07-11T01:37:43;2.57;;;0.97;;
18190;SDS011;47004;51.366;12.348;2022-07-11T01:39:46;1.60;;;0.90;;
18190;SDS011;47004;51.366;12.348;2022-07-11T01:41:48;4.47;;;1.07;;
18190;SDS011;47004;51.366;12.348;2022-07-11T01:43:50;2.07;;;1.27;;
18190;SDS011;47004;51.366;12.348;2022-07-11T01:45:52;1.57;;;1.10;;
18190;SDS011;47004;51.366;12.348;2022-07-11T01:47:55;2.40;;;1.00;;
18190;SDS011;47004;51.366;12.348;2022-07-11T01:49:56;2.40;;;1.10;;
18190;SDS011;47004;51.366;12.348;2022-07-11T01:51:58;2.93;;;1.30;;
18190;SDS011;47004;51.366;12.348;2022-07-11T01:54:00;2.13;;;1.10;;
18190;SDS011;47004;51.366;12.348;2022-07-11T01:56:04;1.47;;;1.17;;
18190;SDS011;47004;51.366;12.348;2022-07-11T01:58:06;1.97;;;1.20;;
18190;SDS011;47004;51.366;12.348;2022-07-11T02:00:08;1.27;;;1.03;;
18190;SDS011;47004;51.366;12.348;2022-07-11T02:02:11;1.20;;;1.10;;
18190;SDS011;47004;51.366;12.348;2022-07-11T02:04:13;1.23;;;1.13;;
18190;SDS011;47004;51.366;12.348;2022-07-11T02:06:15;2.10;;;1.07;;
18190;SDS011;47004;51.366;12.348;2022-07-11T02:08:17;2.07;;;1.20;;
18190;SDS011;47004;51.366;12.348;2022-07-11T02:10:19;1.60;;;1.10;;
18190;SDS011;47004;51.366;12.348;2022-07-11T02:12:22;3.10;;;1.07;;
18190;SDS011;47004;51.366;12.348;2022-07-11T02:14:24;1.43;;;1.00;;
18190;SDS011;47004;51.366;12.348;2022-07-11T02:16:26;1.80;;;1.00;;
18190;SDS011;47004;51.366;12.348;2022-07-11T02:18:28;3.47;;;1.40;;
18190;SDS011;47004;51.366;12.348;2022-07-11T02:20:30;1.23;;;1.00;;
18190;SDS011;47004;51.366;12.348;2022-07-11T02:22:32;2.97;;;1.30;;
18190;SDS011;47004;51.366;12.348;2022-07-11T02:24:34;2.43;;;1.30;;
18190;SDS011;47004;51.366;12.348;2022-07-11T02:26:36;2.13;;;1.40;;
18190;SDS011;47004;51.366;12.348;2022-07-11T02:28:39;1.63;;;1.27;;
18190;SDS011;47004;51.366;12.348;2022-07-11T02:30:43;1.83;;;1.20;;
18190;SDS011;47004;51.366;12.348;2022-07-11T02:32:45;2.10;;;1.30;;
18190;SDS011;47004;51.366;12.348;2022-07-11T02:34:47;2.20;;;1.60;;
18190;SDS011;47004;51.366;12.348;2022-07-11T04:23:57;2.63;;;1.43;;
18190;SDS011;47004;51.366;12.348;2022-07-11T04:25:59;2.93;;;1.30;;
18190;SDS011;47004;51.366;12.348;2022-07-11T04:28:03;1.83;;;1.30;;
18190;SDS011;47004;51.366;12.348;2022-07-11T04:30:06;2.70;;;1.40;;
18190;SDS011;47004;51.366;12.348;2022-07-11T04:32:08;1.80;;;1.47;;
18190;SDS011;47004;51.366;12.348;2022-07-11T04:34:10;3.77;;;1.43;;
18190;SDS011;47004;51.366;12.348;2022-07-11T04:36:13;5.10;;;1.70;;
18190;SDS011;47004;51.366;12.348;2022-07-11T04:38:15;3.30;;;1.70;;
18190;SDS011;47004;51.366;12.348;2022-07-11T04:40:22;2.70;;;1.50;;
18190;SDS011;47004;51.366;12.348;2022-07-11T04:42:24;2.20;;;1.43;;
18190;SDS011;47004;51.366;12.348;2022-07-11T04:44:26;3.67;;;1.43;;
18190;SDS011;47004;51.366;12.348;2022-07-11T04:46:28;2.90;;;1.37;;
18190;SDS011;47004;51.366;12.348;2022-07-11T04:48:31;1.10;;;1.00;;
18190;SDS011;47004;51.366;12.348;2022-07-11T04:50:33;2.97;;;1.30;;
18190;SDS011;47004;51.366;12.348;2022-07-11T04:52:36;1.87;;;1.37;;
18190;SDS011;47004;51.366;12.348;2022-07-11T04:54:38;3.57;;;1.47;;
18190;SDS011;47004;51.366;12.348;2022-07-11T04:56:41;2.17;;;1.20;;
18190;SDS011;47004;51.366;12.348;2022-07-11T04:58:43;2.30;;;1.30;;
18190;SDS011;47004;51.366;12.348;2022-07-11T05:00:46;4.93;;;1.70;;
18190;SDS011;47004;51.366;12.348;2022-07-11T05:02:48;3.67;;;1.77;;
18190;SDS011;47004;51.366;12.348;2022-07-11T05:04:50;3.30;;;1.50;;
18190;SDS011;47004;51.366;12.348;2022-07-11T05:06:52;3.23;;;1.20;;
18190;SDS011;47004;51.366;12.348;2022-07-11T05:08:54;3.83;;;1.37;;
18190;SDS011;47004;51.366;12.348;2022-07-11T05:10:56;2.40;;;1.13;;
18190;SDS011;47004;51.366;12.348;2022-07-11T05:12:59;2.77;;;1.67;;
18190;SDS011;47004;51.366;12.348;2022-07-11T05:15:01;2.70;;;1.30;;
18190;SDS011;47004;51.366;12.348;2022-07-11T05:17:03;2.07;;;1.53;;
18190;SDS011;47004;51.366;12.348;2022-07-11T05:19:05;3.17;;;1.33;;
18190;SDS011;47004;51.366;12.348;2022-07-11T05:21:07;3.77;;;1.47;;
18190;SDS011;47004;51.366;12.348;2022-07-11T05:23:09;4.23;;;1.20;;
18190;SDS011;47004;51.366;12.348;2022-07-11T05:25:11;4.27;;;1.43;;
18190;SDS011;47004;51.366;12.348;2022-07-11T05:27:13;5.70;;;1.90;;
18190;SDS011;47004;51.366;12.348;2022-07-11T05:29:16;5.20;;;1.20;;
18190;SDS011;47004;51.366;12.348;2022-07-11T05:31:18;5.20;;;1.73;;
18190;SDS011;47004;51.366;12.348;2022-07-11T05:33:20;3.20;;;1.70;;
18190;SDS011;47004;51.366;12.348;2022-07-11T05:35:22;5.70;;;1.53;;
18190;SDS011;47004;51.366;12.348;2022-07-11T05:37:25;3.10;;;1.60;;
18190;SDS011;47004;51.366;12.348;2022-07-11T05:39:27;3.10;;;1.40;;
18190;SDS011;47004;51.366;12.348;2022-07-11T05:41:32;2.30;;;1.30;;
18190;SDS011;47004;51.366;12.348;2022-07-11T05:43:34;3.07;;;1.60;;
18190;SDS011;47004;51.366;12.348;2022-07-11T05:45:37;2.80;;;1.50;;
18190;SDS011;47004;51.366;12.348;2022-07-11T05:47:39;3.47;;;1.23;;
18190;SDS011;47004;51.366;12.348;2022-07-11T05:49:41;2.10;;;1.27;;
18190;SDS011;47004;51.366;12.348;2022-07-11T05:51:43;2.73;;;1.40;;
18190;SDS011;47004;51.366;12.348;2022-07-11T05:53:45;4.13;;;1.73;;
18190;SDS011;47004;51.366;12.348;2022-07-11T05:55:47;2.63;;;1.40;;
18190;SDS011;47004;51.366;12.348;2022-07-11T05:57:49;2.17;;;1.30;;
18190;SDS011;47004;51.366;12.348;2022-07-11T05:59:51;4.33;;;1.37;;
18190;SDS011;47004;51.366;12.348;2022-07-11T06:01:54;4.13;;;1.40;;
18190;SDS011;47004;51.366;12.348;2022-07-11T06:03:56;2.93;;;1.20;;
18190;SDS011;47004;51.366;12.348;2022-07-11T06:05:58;2.93;;;1.10;;
18190;SDS011;47004;51.366;12.348;2022-07-11T06:08:04;4.00;;;1.27;;
18190;SDS011;47004;51.366;12.348;2022-07-11T06:10:24;1.87;;;1.00;;
18190;SDS011;47004;51.366;12.348;2022-07-11T06:12:27;3.77;;;1.27;;
18190;SDS011;47004;51.366;12.348;2022-07-11T06:14:29;5.13;;;1.27;;
18190;SDS011;47004;51.366;12.348;2022-07-11T06:16:31;3.33;;;1.20;;
18190;SDS011;47004;51.366;12.348;2022-07-11T06:18:36;2.00;;;0.90;;
18190;SDS011;47004;51.366;12.348;2022-07-11T06:20:39;3.23;;;1.17;;
18190;SDS011;47004;51.366;12.348;2022-07-11T06:22:41;3.70;;;1.27;;
18190;SDS011;47004;51.366;12.348;2022-07-11T06:24:43;3.13;;;1.20;;
18190;SDS011;47004;51.366;12.348;2022-07-11T06:26:45;2.00;;;1.10;;
18190;SDS011;47004;51.366;12.348;2022-07-11T06:28:47;3.10;;;0.83;;
18190;SDS011;47004;51.366;12.348;2022-07-11T06:30:49;1.93;;;0.90;;
18190;SDS011;47004;51.366;12.348;2022-07-11T06:32:51;1.40;;;0.90;;
18190;SDS011;47004;51.366;12.348;2022-07-11T06:34:57;1.57;;;0.70;;
18190;SDS011;47004;51.366;12.348;2022-07-11T06:36:59;1.67;;;0.83;;
18190;SDS011;47004;51.366;12.348;2022-07-11T06:39:02;2.47;;;1.00;;
18190;SDS011;47004;51.366;12.348;2022-07-11T06:41:04;3.43;;;0.90;;
18190;SDS011;47004;51.366;12.348;2022-07-11T06:43:06;1.73;;;0.80;;
18190;SDS011;47004;51.366;12.348;2022-07-11T06:45:08;0.70;;;0.67;;
18190;SDS011;47004;51.366;12.348;2022-07-11T06:47:10;1.23;;;0.70;;
18190;SDS011;47004;51.366;12.348;2022-07-11T06:49:12;3.37;;;0.83;;
18190;SDS011;47004;51.366;12.348;2022-07-11T06:51:15;2.67;;;1.03;;
18190;SDS011;47004;51.366;12.348;2022-07-11T06:53:17;2.57;;;0.80;;
18190;SDS011;47004;51.366;12.348;2022-07-11T06:55:20;2.40;;;0.80;;
18190;SDS011;47004;51.366;12.348;2022-07-11T06:57:24;5.20;;;0.90;;
18190;SDS011;47004;51.366;12.348;2022-07-11T06:59:26;2.70;;;1.00;;
18190;SDS011;47004;51.366;12.348;2022-07-11T07:01:28;0.80;;;0.60;;
18190;SDS011;47004;51.366;12.348;2022-07-11T07:03:31;1.93;;;0.70;;
18190;SDS011;47004;51.366;12.348;2022-07-11T07:05:33;3.40;;;0.70;;
18190;SDS011;47004;51.366;12.348;2022-07-11T07:07:36;1.77;;;0.70;;
18190;SDS011;47004;51.366;12.348;2022-07-11T07:09:39;1.63;;;0.63;;
18190;SDS011;47004;51.366;12.348;2022-07-11T07:11:41;0.93;;;0.53;;
18190;SDS011;47004;51.366;12.348;2022-07-11T07:13:43;1.30;;;0.70;;
18190;SDS011;47004;51.366;12.348;2022-07-11T07:15:45;1.90;;;0.70;;
18190;SDS011;47004;51.366;12.348;2022-07-11T07:17:47;1.77;;;0.80;;
18190;SDS011;47004;51.366;12.348;2022-07-11T07:19:49;1.40;;;0.70;;
18190;SDS011;47004;51.366;12.348;2022-07-11T07:21:51;1.03;;;0.73;;
18190;SDS011;47004;51.366;12.348;2022-07-11T07:23:55;1.07;;;0.70;;
18190;SDS011;47004;51.366;12.348;2022-07-11T07:25:57;0.77;;;0.70;;
18190;SDS011;47004;51.366;12.348;2022-07-11T07:28:00;4.63;;;0.77;;
18190;SDS011;47004;51.366;12.348;2022-07-11T07:30:08;2.03;;;0.80;;
18190;SDS011;47004;51.366;12.348;2022-07-11T07:32:11;0.43;;;0.43;;
18190;SDS011;47004;51.366;12.348;2022-07-11T07:34:13;1.07;;;0.53;;
18190;SDS011;47004;51.366;12.348;2022-07-11T07:36:15;0.87;;;0.70;;
18190;SDS011;47004;51.366;12.348;2022-07-11T07:38:18;0.90;;;0.60;;
18190;SDS011;47004;51.366;12.348;2022-07-11T07:40:21;0.93;;;0.60;;
18190;SDS011;47004;51.366;12.348;2022-07-11T07:42:26;1.17;;;0.60;;
18190;SDS011;47004;51.366;12.348;2022-07-11T07:44:28;0.80;;;0.60;;
18190;SDS011;47004;51.366;12.348;2022-07-11T07:46:30;1.20;;;0.70;;
18190;SDS011;47004;51.366;12.348;2022-07-11T07:48:32;3.63;;;0.80;;
18190;SDS011;47004;51.366;12.348;2022-07-11T07:50:34;3.43;;;0.90;;
18190;SDS011;47004;51.366;12.348;2022-07-11T07:52:35;2.83;;;0.80;;
18190;SDS011;47004;51.366;12.348;2022-07-11T07:54:37;3.80;;;1.10;;
18190;SDS011;47004;51.366;12.348;2022-07-11T07:56:41;0.87;;;0.70;;
18190;SDS011;47004;51.366;12.348;2022-07-11T07:58:43;2.23;;;0.97;;
18190;SDS011;47004;51.366;12.348;2022-07-11T08:00:44;1.90;;;0.70;;
18190;SDS011;47004;51.366;12.348;2022-07-11T08:03:04;1.67;;;0.60;;
18190;SDS011;47004;51.366;12.348;2022-07-11T08:05:07;1.90;;;0.80;;
18190;SDS011;47004;51.366;12.348;2022-07-11T08:07:10;5.53;;;0.87;;
18190;SDS011;47004;51.366;12.348;2022-07-11T08:09:12;2.70;;;0.70;;
18190;SDS011;47004;51.366;12.348;2022-07-11T08:11:14;3.23;;;0.90;;
18190;SDS011;47004;51.366;12.348;2022-07-11T08:13:17;2.73;;;1.03;;
18190;SDS011;47004;51.366;12.348;2022-07-11T08:15:23;2.47;;;0.90;;
18190;SDS011;47004;51.366;12.348;2022-07-11T08:17:25;1.53;;;0.87;;
18190;SDS011;47004;51.366;12.348;2022-07-11T08:19:27;1.53;;;0.87;;
18190;SDS011;47004;51.366;12.348;2022-07-11T08:21:31;1.60;;;0.77;;
18190;SDS011;47004;51.366;12.348;2022-07-11T08:23:34;0.80;;;0.60;;
18190;SDS011;47004;51.366;12.348;2022-07-11T08:25:36;0.73;;;0.50;;
18190;SDS011;47004;51.366;12.348;2022-07-11T08:27:37;1.10;;;0.60;;
18190;SDS011;47004;51.366;12.348;2022-07-11T08:29:41;0.57;;;0.50;;
18190;SDS011;47004;51.366;12.348;2022-07-11T08:31:43;1.23;;;0.70;;
18190;SDS011;47004;51.366;12.348;2022-07-11T08:33:45;0.90;;;0.60;;
18190;SDS011;47004;51.366;12.348;2022-07-11T08:35:47;1.20;;;0.60;;
18190;SDS011;47004;51.366;12.348;2022-07-11T08:37:49;0.80;;;0.40;;
18190;SDS011;47004;51.366;12.348;2022-07-11T08:39:51;1.33;;;0.80;;
18190;SDS011;47004;51.366;12.348;2022-07-11T08:41:53;2.77;;;0.80;;
18190;SDS011;47004;51.366;12.348;2022-07-11T08:43:58;2.80;;;1.10;;
18190;SDS011;47004;51.366;12.348;2022-07-11T08:46:03;2.90;;;1.00;;
18190;SDS011;47004;51.366;12.348;2022-07-11T08:48:07;2.10;;;1.10;;
18190;SDS011;47004;51.366;12.348;2022-07-11T08:50:10;3.00;;;1.20;;
18190;SDS011;47004;51.366;12.348;2022-07-11T08:52:13;1.77;;;0.90;;
18190;SDS011;47004;51.366;12.348;2022-07-11T08:54:19;1.60;;;0.70;;
18190;SDS011;47004;51.366;12.348;2022-07-11T08:56:21;1.30;;;0.70;;
18190;SDS011;47004;51.366;12.348;2022-07-11T08:58:23;1.30;;;0.70;;
18190;SDS011;47004;51.366;12.348;2022-07-11T09:00:25;2.77;;;0.90;;
18190;SDS011;47004;51.366;12.348;2022-07-11T09:02:28;1.03;;;0.80;;
18190;SDS011;47004;51.366;12.348;2022-07-11T09:04:31;0.63;;;0.57;;
18190;SDS011;47004;51.366;12.348;2022-07-11T09:06:33;1.40;;;0.57;;
18190;SDS011;47004;51.366;12.348;2022-07-11T09:08:36;1.57;;;0.80;;
18190;SDS011;47004;51.366;12.348;2022-07-11T09:10:38;1.37;;;0.70;;
18190;SDS011;47004;51.366;12.348;2022-07-11T09:15:01;0.97;;;0.70;;
18190;SDS011;47004;51.366;12.348;2022-07-11T09:17:05;0.90;;;0.70;;
18190;SDS011;47004;51.366;12.348;2022-07-11T09:19:21;0.70;;;0.60;;
18190;SDS011;47004;51.366;12.348;2022-07-11T09:21:24;1.40;;;0.87;;
18190;SDS011;47004;51.366;12.348;2022-07-11T09:23:46;0.90;;;0.50;;
18190;SDS011;47004;51.366;12.348;2022-07-11T09:26:06;0.83;;;0.70;;
18190;SDS011;47004;51.366;12.348;2022-07-11T09:28:08;0.80;;;0.50;;
18190;SDS011;47004;51.366;12.348;2022-07-11T09:30:21;0.43;;;0.43;;
18190;SDS011;47004;51.366;12.348;2022-07-11T09:32:26;1.03;;;0.50;;
18190;SDS011;47004;51.366;12.348;2022-07-11T09:34:29;0.60;;;0.50;;
18190;SDS011;47004;51.366;12.348;2022-07-11T09:36:35;0.40;;;0.40;;
18190;SDS011;47004;51.366;12.348;2022-07-11T09:38:38;0.87;;;0.50;;
18190;SDS011;47004;51.366;12.348;2022-07-11T09:40:57;1.17;;;0.60;;
18190;SDS011;47004;51.366;12.348;2022-07-11T09:43:11;1.17;;;0.63;;
18190;SDS011;47004;51.366;12.348;2022-07-11T09:45:13;0.53;;;0.53;;
18190;SDS011;47004;51.366;12.348;2022-07-11T09:47:16;0.60;;;0.60;;
18190;SDS011;47004;51.366;12.348;2022-07-11T09:49:31;0.50;;;0.50;;
18190;SDS011;47004;51.366;12.348;2022-07-11T09:51:35;1.20;;;0.70;;
18190;SDS011;47004;51.366;12.348;2022-07-11T09:53:41;1.90;;;0.80;;
18190;SDS011;47004;51.366;12.348;2022-07-11T09:55:55;1.10;;;0.60;;
18190;SDS011;47004;51.366;12.348;2022-07-11T09:57:57;2.63;;;0.70;;
18190;SDS011;47004;51.366;12.348;2022-07-11T09:59:59;1.37;;;0.60;;
18190;SDS011;47004;51.366;12.348;2022-07-11T10:02:02;1.07;;;0.67;;
18190;SDS011;47004;51.366;12.348;2022-07-11T10:04:10;1.93;;;0.50;;
18190;SDS011;47004;51.366;12.348;2022-07-11T10:06:14;1.70;;;0.60;;
18190;SDS011;47004;51.366;12.348;2022-07-11T10:08:16;0.60;;;0.50;;
18190;SDS011;47004;51.366;12.348;2022-07-11T10:10:18;0.60;;;0.60;;
18190;SDS011;47004;51.366;12.348;2022-07-11T10:12:20;0.40;;;0.40;;
18190;SDS011;47004;51.366;12.348;2022-07-11T10:14:22;0.83;;;0.50;;
18190;SDS011;47004;51.366;12.348;2022-07-11T10:16:31;1.23;;;0.50;;
18190;SDS011;47004;51.366;12.348;2022-07-11T10:18:45;1.00;;;0.60;;
18190;SDS011;47004;51.366;12.348;2022-07-11T10:20:52;0.67;;;0.40;;
18190;SDS011;47004;51.366;12.348;2022-07-11T10:23:04;1.47;;;0.53;;
18190;SDS011;47004;51.366;12.348;2022-07-11T10:25:14;0.70;;;0.70;;
18190;SDS011;47004;51.366;12.348;2022-07-11T10:27:22;2.70;;;0.60;;
18190;SDS011;47004;51.366;12.348;2022-07-11T10:29:31;0.70;;;0.60;;
18190;SDS011;47004;51.366;12.348;2022-07-11T10:31:36;1.10;;;0.57;;
18190;SDS011;47004;51.366;12.348;2022-07-11T10:33:39;0.60;;;0.60;;
18190;SDS011;47004;51.366;12.348;2022-07-11T10:36:01;0.67;;;0.67;;
18190;SDS011;47004;51.366;12.348;2022-07-11T10:38:05;2.27;;;0.67;;
18190;SDS011;47004;51.366;12.348;2022-07-11T10:40:08;0.40;;;0.40;;
18190;SDS011;47004;51.366;12.348;2022-07-11T10:42:10;1.23;;;0.60;;
18190;SDS011;47004;51.366;12.348;2022-07-11T10:44:21;1.13;;;0.53;;
18190;SDS011;47004;51.366;12.348;2022-07-11T10:46:23;1.37;;;0.60;;
18190;SDS011;47004;51.366;12.348;2022-07-11T10:48:29;1.00;;;0.70;;
18190;SDS011;47004;51.366;12.348;2022-07-11T10:50:33;3.23;;;0.90;;
18190;SDS011;47004;51.366;12.348;2022-07-11T10:52:37;1.30;;;0.60;;
18190;SDS011;47004;51.366;12.348;2022-07-11T10:54:47;0.73;;;0.50;;
18190;SDS011;47004;51.366;12.348;2022-07-11T10:57:02;0.67;;;0.40;;
18190;SDS011;47004;51.366;12.348;2022-07-11T10:59:13;1.17;;;0.60;;
18190;SDS011;47004;51.366;12.348;2022-07-11T11:01:16;0.83;;;0.63;;
18190;SDS011;47004;51.366;12.348;2022-07-11T11:03:18;3.40;;;0.60;;
18190;SDS011;47004;51.366;12.348;2022-07-11T11:07:49;1.33;;;0.60;;
18190;SDS011;47004;51.366;12.348;2022-07-11T11:09:52;0.70;;;0.60;;
18190;SDS011;47004;51.366;12.348;2022-07-11T11:11:55;1.17;;;0.60;;
18190;SDS011;47004;51.366;12.348;2022-07-11T11:16:29;1.37;;;0.50;;
18190;SDS011;47004;51.366;12.348;2022-07-11T11:18:34;2.53;;;0.60;;
18190;SDS011;47004;51.366;12.348;2022-07-11T11:20:37;0.80;;;0.60;;
18190;SDS011;47004;51.366;12.348;2022-07-11T11:22:39;1.90;;;0.60;;
18190;SDS011;47004;51.366;12.348;2022-07-11T11:24:41;0.50;;;0.50;;
18190;SDS011;47004;51.366;12.348;2022-07-11T11:26:46;2.27;;;0.60;;
18190;SDS011;47004;51.366;12.348;2022-07-11T11:28:56;1.53;;;0.70;;
18190;SDS011;47004;51.366;12.348;2022-07-11T11:31:00;1.40;;;0.80;;
18190;SDS011;47004;51.366;12.348;2022-07-11T11:33:13;1.73;;;0.57;;
18190;SDS011;47004;51.366;12.348;2022-07-11T11:35:16;1.13;;;0.77;;
18190;SDS011;47004;51.366;12.348;2022-07-11T11:37:18;1.33;;;0.60;;
18190;SDS011;47004;51.366;12.348;2022-07-11T11:39:25;1.20;;;0.63;;
18190;SDS011;47004;51.366;12.348;2022-07-11T11:41:30;1.27;;;0.50;;
18190;SDS011;47004;51.366;12.348;2022-07-11T11:43:33;1.57;;;0.50;;
18190;SDS011;47004;51.366;12.348;2022-07-11T11:45:36;1.47;;;0.80;;
18190;SDS011;47004;51.366;12.348;2022-07-11T11:47:46;0.90;;;0.70;;
18190;SDS011;47004;51.366;12.348;2022-07-11T11:49:49;1.60;;;0.70;;
18190;SDS011;47004;51.366;12.348;2022-07-11T11:51:53;2.60;;;0.80;;
18190;SDS011;47004;51.366;12.348;2022-07-11T11:53:56;1.13;;;0.73;;
18190;SDS011;47004;51.366;12.348;2022-07-11T11:55:59;0.80;;;0.53;;
18190;SDS011;47004;51.366;12.348;2022-07-11T11:58:01;1.43;;;0.50;;
18190;SDS011;47004;51.366;12.348;2022-07-11T12:00:13;1.13;;;0.50;;
18190;SDS011;47004;51.366;12.348;2022-07-11T12:02:27;1.50;;;0.57;;
18190;SDS011;47004;51.366;12.348;2022-07-11T12:04:30;1.70;;;0.50;;
18190;SDS011;47004;51.366;12.348;2022-07-11T12:06:34;0.40;;;0.40;;
18190;SDS011;47004;51.366;12.348;2022-07-11T12:08:37;2.20;;;0.70;;
18190;SDS011;47004;51.366;12.348;2022-07-11T12:10:39;0.33;;;0.33;;
18190;SDS011;47004;51.366;12.348;2022-07-11T12:12:41;1.13;;;0.40;;
18190;SDS011;47004;51.366;12.348;2022-07-11T12:14:47;1.00;;;0.40;;
18190;SDS011;47004;51.366;12.348;2022-07-11T12:16:50;2.37;;;0.60;;
18190;SDS011;47004;51.366;12.348;2022-07-11T12:18:52;2.47;;;0.70;;
18190;SDS011;47004;51.366;12.348;2022-07-11T12:20:54;0.70;;;0.43;;
18190;SDS011;47004;51.366;12.348;2022-07-11T12:22:57;0.77;;;0.57;;
18190;SDS011;47004;51.366;12.348;2022-07-11T12:24:59;0.93;;;0.60;;
18190;SDS011;47004;51.366;12.348;2022-07-11T12:27:01;0.50;;;0.50;;
18190;SDS011;47004;51.366;12.348;2022-07-11T12:29:04;0.60;;;0.60;;
18190;SDS011;47004;51.366;12.348;2022-07-11T12:31:08;0.70;;;0.50;;
18190;SDS011;47004;51.366;12.348;2022-07-11T12:33:12;1.20;;;0.40;;
18190;SDS011;47004;51.366;12.348;2022-07-11T12:35:15;0.50;;;0.50;;
18190;SDS011;47004;51.366;12.348;2022-07-11T12:37:18;1.33;;;0.43;;
18190;SDS011;47004;51.366;12.348;2022-07-11T12:39:22;1.33;;;0.60;;
18190;SDS011;47004;51.366;12.348;2022-07-11T12:41:25;0.50;;;0.50;;
18190;SDS011;47004;51.366;12.348;2022-07-11T12:43:40;0.60;;;0.50;;
18190;SDS011;47004;51.366;12.348;2022-07-11T12:46:12;1.33;;;0.63;;
18190;SDS011;47004;51.366;12.348;2022-07-11T12:48:15;0.73;;;0.40;;
18190;SDS011;47004;51.366;12.348;2022-07-11T12:50:17;0.60;;;0.50;;
18190;SDS011;47004;51.366;12.348;2022-07-11T12:52:21;0.73;;;0.50;;
18190;SDS011;47004;51.366;12.348;2022-07-11T12:54:36;1.40;;;0.40;;
18190;SDS011;47004;51.366;12.348;2022-07-11T12:56:53;0.70;;;0.47;;
18190;SDS011;47004;51.366;12.348;2022-07-11T12:59:32;0.55;;;0.30;;
18190;SDS011;47004;51.366;12.348;2022-07-11T13:01:35;0.50;;;0.50;;
18190;SDS011;47004;51.366;12.348;2022-07-11T13:03:38;1.45;;;0.60;;
18190;SDS011;47004;51.366;12.348;2022-07-11T13:05:47;1.13;;;0.47;;
18190;SDS011;47004;51.366;12.348;2022-07-11T13:07:49;0.77;;;0.60;;
18190;SDS011;47004;51.366;12.348;2022-07-11T13:10:09;0.55;;;0.30;;
18190;SDS011;47004;51.366;12.348;2022-07-11T13:12:12;0.90;;;0.40;;
18190;SDS011;47004;51.366;12.348;2022-07-11T13:14:14;1.98;;;0.50;;
18190;SDS011;47004;51.366;12.348;2022-07-11T13:16:33;1.02;;;0.70;;
18190;SDS011;47004;51.366;12.348;2022-07-11T13:18:35;2.03;;;0.80;;
18190;SDS011;47004;51.366;12.348;2022-07-11T13:20:39;1.23;;;0.70;;
18190;SDS011;47004;51.366;12.348;2022-07-11T13:22:41;0.95;;;0.52;;
18190;SDS011;47004;51.366;12.348;2022-07-11T13:24:45;1.00;;;0.50;;
18190;SDS011;47004;51.366;12.348;2022-07-11T13:26:46;1.08;;;0.43;;
18190;SDS011;47004;51.366;12.348;2022-07-11T13:28:48;1.75;;;0.80;;
18190;SDS011;47004;51.366;12.348;2022-07-11T13:30:51;1.00;;;0.50;;
18190;SDS011;47004;51.366;12.348;2022-07-11T13:32:53;1.38;;;0.80;;
18190;SDS011;47004;51.366;12.348;2022-07-11T13:34:55;1.60;;;0.70;;
18190;SDS011;47004;51.366;12.348;2022-07-11T13:36:58;2.55;;;0.60;;
18190;SDS011;47004;51.366;12.348;2022-07-11T13:39:00;0.70;;;0.70;;
18190;SDS011;47004;51.366;12.348;2022-07-11T13:41:02;0.68;;;0.47;;
18190;SDS011;47004;51.366;12.348;2022-07-11T13:43:04;0.73;;;0.38;;
18190;SDS011;47004;51.366;12.348;2022-07-11T13:45:07;1.17;;;0.60;;
18190;SDS011;47004;51.366;12.348;2022-07-11T13:47:10;0.47;;;0.32;;
18190;SDS011;47004;51.366;12.348;2022-07-11T13:49:13;1.55;;;0.70;;
18190;SDS011;47004;51.366;12.348;2022-07-11T13:51:15;0.85;;;0.70;;
18190;SDS011;47004;51.366;12.348;2022-07-11T13:53:18;0.50;;;0.50;;
18190;SDS011;47004;51.366;12.348;2022-07-11T13:55:20;0.77;;;0.50;;
18190;SDS011;47004;51.366;12.348;2022-07-11T13:57:25;0.77;;;0.50;;
18190;SDS011;47004;51.366;12.348;2022-07-11T13:59:27;0.70;;;0.50;;
18190;SDS011;47004;51.366;12.348;2022-07-11T14:01:29;0.88;;;0.50;;
18190;SDS011;47004;51.366;12.348;2022-07-11T14:03:31;0.75;;;0.50;;
18190;SDS011;47004;51.366;12.348;2022-07-11T14:05:33;0.60;;;0.60;;
18190;SDS011;47004;51.366;12.348;2022-07-11T14:07:35;0.60;;;0.50;;
18190;SDS011;47004;51.366;12.348;2022-07-11T14:09:39;1.08;;;0.50;;